createdAt,value
2018-09-01T00:01:44.325Z,98.34
2018-09-01T00:04:11.600Z,98.16
2018-09-01T00:06:38.970Z,98.98
2018-09-01T00:09:06.800Z,98.63
2018-09-01T00:11:34.076Z,99.37
2018-09-01T00:14:01.417Z,98.32
2018-09-01T00:16:28.641Z,98.39
2018-09-01T00:18:55.912Z,99.41
2018-09-01T00:21:23.197Z,98.87
2018-09-01T00:23:50.444Z,98.66
2018-09-01T00:26:17.673Z,98.84
2018-09-01T00:28:45.015Z,98.97
2018-09-01T00:31:12.429Z,98.82
2018-09-01T00:33:39.661Z,98.28
2018-09-01T00:36:07.022Z,97.42
2018-09-01T00:38:39.999Z,97.16
2018-09-01T00:41:07.282Z,97.54
2018-09-01T00:43:34.621Z,97.25
2018-09-01T00:46:01.899Z,96.51
2018-09-01T00:48:29.184Z,97.33
2018-09-01T00:50:56.432Z,97.35
2018-09-01T00:53:23.770Z,96.64
2018-09-01T00:55:51.136Z,97.13
2018-09-01T00:58:18.442Z,97.01
2018-09-01T01:00:45.768Z,96.58
2018-09-01T01:03:13.200Z,96.72
2018-09-01T01:05:40.498Z,96.00
2018-09-01T01:08:07.793Z,95.78
2018-09-01T01:10:35.099Z,96.01
2018-09-01T01:13:02.299Z,96.85
2018-09-01T01:15:29.665Z,97.09
2018-09-01T01:17:56.998Z,97.26
2018-09-01T01:20:24.374Z,97.42
2018-09-01T01:22:51.731Z,96.98
2018-09-01T01:25:19.047Z,97.64
2018-09-01T01:27:46.302Z,97.43
2018-09-01T01:30:13.593Z,97.04
2018-09-01T01:32:40.930Z,97.33
2018-09-01T01:35:08.372Z,97.64
2018-09-01T01:37:36.155Z,96.62
2018-09-01T01:40:04.347Z,96.77
2018-09-01T01:42:31.931Z,97.24
2018-09-01T01:44:59.223Z,96.62
2018-09-01T01:47:26.510Z,96.61
2018-09-01T01:49:53.800Z,96.50
2018-09-01T01:52:21.130Z,96.76
2018-09-01T01:54:48.615Z,97.51
2018-09-01T01:57:16.015Z,97.20
2018-09-01T01:59:43.357Z,97.17
2018-09-01T02:02:10.667Z,98.52
2018-09-01T02:04:38.160Z,97.97
2018-09-01T02:07:05.470Z,98.32
2018-09-01T02:09:32.869Z,97.32
2018-09-01T02:12:00.141Z,97.77
2018-09-01T02:14:27.472Z,97.22
2018-09-01T02:16:54.860Z,96.85
2018-09-01T02:19:22.098Z,96.47
2018-09-01T02:21:49.408Z,96.68
2018-09-01T02:24:16.710Z,96.05
2018-09-01T02:26:44.003Z,96.45
2018-09-01T02:29:11.400Z,96.45
2018-09-01T02:31:38.775Z,96.27
2018-09-01T02:34:06.079Z,96.24
2018-09-01T02:36:33.335Z,96.64
2018-09-01T02:39:00.611Z,97.01
2018-09-01T02:41:28.001Z,97.32
2018-09-01T02:43:55.477Z,96.82
2018-09-01T02:46:22.885Z,95.95
2018-09-01T02:48:50.222Z,97.09
2018-09-01T02:51:17.515Z,97.69
2018-09-01T02:53:44.782Z,96.88
2018-09-01T02:56:12.084Z,96.55
2018-09-01T02:58:39.351Z,96.63
2018-09-01T03:01:12.314Z,95.69
2018-09-01T03:03:39.600Z,95.22
2018-09-01T03:06:07.416Z,94.79
2018-09-01T03:08:34.776Z,94.61
2018-09-01T03:11:02.090Z,94.45
2018-09-01T03:13:29.471Z,95.48
2018-09-01T03:15:56.779Z,94.81
2018-09-01T03:18:24.070Z,94.99
2018-09-01T03:20:51.491Z,95.08
2018-09-01T03:23:18.714Z,94.34
2018-09-01T03:25:46.009Z,94.57
2018-09-01T03:28:13.301Z,95.34
2018-09-01T03:30:40.578Z,95.75
2018-09-01T03:33:07.815Z,96.54
2018-09-01T03:35:35.107Z,97.02
2018-09-01T03:38:02.342Z,96.73
2018-09-01T03:40:29.702Z,97.12
2018-09-01T03:42:56.946Z,97.29
2018-09-01T03:45:24.157Z,96.36
2018-09-01T03:47:51.966Z,95.96
2018-09-01T03:50:19.319Z,96.06
2018-09-01T03:52:46.617Z,95.62
2018-09-01T03:55:13.974Z,95.93
2018-09-01T03:57:41.364Z,95.14
2018-09-01T04:00:08.723Z,95.12
2018-09-01T04:02:36.154Z,94.74
2018-09-01T04:05:03.503Z,95.05
2018-09-01T04:07:30.735Z,95.09
2018-09-01T04:09:57.995Z,94.35
2018-09-01T04:12:25.246Z,94.30
2018-09-01T04:14:52.485Z,94.54
2018-09-01T04:17:19.749Z,94.56
2018-09-01T04:19:47.104Z,94.19
2018-09-01T04:22:14.353Z,93.88
2018-09-01T04:24:41.645Z,94.03
2018-09-01T04:27:09.009Z,93.72
2018-09-01T04:29:36.289Z,93.66
2018-09-01T04:32:03.657Z,93.79
2018-09-01T04:34:30.954Z,94.11
2018-09-01T04:36:58.242Z,94.01
2018-09-01T04:39:25.568Z,94.14
2018-09-01T04:41:52.852Z,94.37
2018-09-01T04:44:20.179Z,94.12
2018-09-01T04:46:47.553Z,93.84
2018-09-01T04:49:14.850Z,94.03
2018-09-01T04:51:42.118Z,93.82
2018-09-01T04:54:09.588Z,94.11
2018-09-01T04:56:36.888Z,94.61
2018-09-01T04:59:04.143Z,93.89
2018-09-01T05:01:31.496Z,93.87
2018-09-01T05:03:58.863Z,93.85
2018-09-01T05:06:26.080Z,93.96
2018-09-01T05:08:53.354Z,93.87
2018-09-01T05:11:20.632Z,92.96
2018-09-01T05:13:47.919Z,93.48
2018-09-01T05:16:15.245Z,92.72
2018-09-01T05:18:42.538Z,93.26
2018-09-01T05:21:09.834Z,93.17
2018-09-01T05:23:37.147Z,94.21
2018-09-01T05:26:04.443Z,93.61
2018-09-01T05:28:31.840Z,94.52
2018-09-01T05:30:59.110Z,94.79
2018-09-01T05:33:26.549Z,94.74
2018-09-01T05:35:53.791Z,95.51
2018-09-01T05:38:21.109Z,95.50
2018-09-01T05:40:48.439Z,94.65
2018-09-01T05:43:15.727Z,95.00
2018-09-01T05:45:42.988Z,93.14
2018-09-01T05:48:10.306Z,94.37
2018-09-01T05:50:37.557Z,94.42
2018-09-01T05:53:05.105Z,94.48
2018-09-01T05:55:32.385Z,93.85
2018-09-01T05:57:59.652Z,93.52
2018-09-01T06:00:26.956Z,93.69
2018-09-01T06:02:54.273Z,92.69
2018-09-01T06:05:21.766Z,93.40
2018-09-01T06:07:49.153Z,93.51
2018-09-01T06:10:16.459Z,94.45
2018-09-01T06:12:44.351Z,94.39
2018-09-01T06:15:11.691Z,94.10
2018-09-01T06:17:38.993Z,93.82
2018-09-01T06:20:06.394Z,92.75
2018-09-01T06:22:33.650Z,90.44
2018-09-01T06:25:01.167Z,90.17
2018-09-01T06:27:31.866Z,87.93
2018-09-01T06:29:59.211Z,87.37
2018-09-01T06:32:26.700Z,86.00
2018-09-01T06:34:53.992Z,84.88
2018-09-01T06:37:22.350Z,83.03
2018-09-01T06:39:49.725Z,82.85
2018-09-01T06:42:16.949Z,82.24
2018-09-01T06:44:44.206Z,83.65
2018-09-01T06:47:13.379Z,83.56
2018-09-01T06:49:40.672Z,83.42
2018-09-01T06:52:07.960Z,82.93
2018-09-01T06:54:35.203Z,82.28
2018-09-01T06:57:02.485Z,80.92
2018-09-01T06:59:29.714Z,79.54
2018-09-01T07:01:56.995Z,80.47
2018-09-01T07:04:24.288Z,77.26
2018-09-01T07:06:51.692Z,76.72
2018-09-01T07:09:18.982Z,73.74
2018-09-01T07:11:46.294Z,71.13
2018-09-01T07:14:13.583Z,69.27
2018-09-01T07:16:40.858Z,67.50
2018-09-01T07:19:08.072Z,66.52
2018-09-01T07:21:35.339Z,63.13
2018-09-01T07:24:02.652Z,61.83
2018-09-01T07:26:29.989Z,60.50
2018-09-01T07:28:57.224Z,59.44
2018-09-01T07:31:24.888Z,57.07
2018-09-01T07:33:51.748Z,57.15
2018-09-01T07:36:19.020Z,57.88
2018-09-01T07:38:46.343Z,55.65
2018-09-01T07:41:13.811Z,56.27
2018-09-01T07:43:41.123Z,56.47
2018-09-01T07:46:08.494Z,54.75
2018-09-01T07:48:35.868Z,53.93
2018-09-01T07:51:03.184Z,52.64
2018-09-01T07:53:30.476Z,51.50
2018-09-01T07:55:57.819Z,51.64
2018-09-01T07:58:25.348Z,51.75
2018-09-01T08:00:52.668Z,53.26
2018-09-01T08:03:19.927Z,52.63
2018-09-01T08:05:47.230Z,50.85
2018-09-01T08:08:14.558Z,52.78
2018-09-01T08:10:41.886Z,52.57
2018-09-01T08:13:09.327Z,52.24
2018-09-01T08:15:36.666Z,53.05
2018-09-01T08:18:04.400Z,53.39
2018-09-01T08:20:31.685Z,54.02
2018-09-01T08:22:59.113Z,54.23
2018-09-01T08:25:26.506Z,53.43
2018-09-01T08:27:53.899Z,54.07
2018-09-01T08:30:21.309Z,53.44
2018-09-01T08:32:48.588Z,54.15
2018-09-01T08:35:15.997Z,52.93
2018-09-01T08:37:43.292Z,54.07
2018-09-01T08:40:10.529Z,52.92
2018-09-01T08:42:37.765Z,54.73
2018-09-01T08:45:05.136Z,52.70
2018-09-01T08:47:32.421Z,52.36
2018-09-01T08:49:59.719Z,50.45
2018-09-01T08:52:27.280Z,50.29
2018-09-01T08:54:54.582Z,50.48
2018-09-01T08:57:21.896Z,50.97
2018-09-01T08:59:49.186Z,50.24
2018-09-01T09:02:16.573Z,48.92
2018-09-01T09:04:44.038Z,50.13
2018-09-01T09:07:11.348Z,48.72
2018-09-01T09:09:38.689Z,48.85
2018-09-01T09:12:05.956Z,48.64
2018-09-01T09:14:33.248Z,47.58
2018-09-01T09:17:00.524Z,47.22
2018-09-01T09:19:27.913Z,47.12
2018-09-01T09:21:55.259Z,45.80
2018-09-01T09:24:22.610Z,45.98
2018-09-01T09:26:49.863Z,45.48
2018-09-01T09:29:18.301Z,45.00
2018-09-01T09:31:46.776Z,43.57
2018-09-01T09:34:14.171Z,43.25
2018-09-01T09:36:41.464Z,44.59
2018-09-01T09:39:09.693Z,43.93
2018-09-01T09:41:37.076Z,42.88
2018-09-01T09:44:04.541Z,43.61
2018-09-01T09:46:31.782Z,43.77
2018-09-01T09:48:59.389Z,42.62
2018-09-01T09:51:26.611Z,42.27
2018-09-01T09:53:53.949Z,40.53
2018-09-01T09:56:21.279Z,40.02
2018-09-01T09:58:48.634Z,40.94
2018-09-01T10:01:46.621Z,40.03
2018-09-01T10:04:13.956Z,40.09
2018-09-01T10:06:41.246Z,39.36
2018-09-01T10:09:12.734Z,40.96
2018-09-01T10:11:40.909Z,40.33
2018-09-01T10:14:08.139Z,39.54
2018-09-01T10:16:35.404Z,38.79
2018-09-01T10:19:02.622Z,38.51
2018-09-01T10:21:29.938Z,37.87
2018-09-01T10:23:58.025Z,37.46
2018-09-01T10:26:25.348Z,38.02
2018-09-01T10:28:52.625Z,36.57
2018-09-01T10:31:20.049Z,36.43
2018-09-01T10:33:47.415Z,36.09
2018-09-01T10:36:14.786Z,36.41
2018-09-01T10:38:42.825Z,35.19
2018-09-01T10:41:10.240Z,34.79
2018-09-01T10:43:37.623Z,35.23
2018-09-01T10:46:09.885Z,36.46
2018-09-01T10:48:37.418Z,34.12
2018-09-01T10:51:04.998Z,33.71
2018-09-01T10:53:32.271Z,33.77
2018-09-01T10:55:59.850Z,34.87
2018-09-01T10:58:27.487Z,33.98
2018-09-01T11:00:54.723Z,34.33
2018-09-01T11:03:21.997Z,33.04
2018-09-01T11:05:49.336Z,33.08
2018-09-01T11:08:16.627Z,32.08
2018-09-01T11:10:43.926Z,32.87
2018-09-01T11:13:11.880Z,31.05
2018-09-01T11:15:39.172Z,33.03
2018-09-01T11:18:06.490Z,34.36
2018-09-01T11:20:33.781Z,35.25
2018-09-01T11:23:01.035Z,34.79
2018-09-01T11:25:28.423Z,34.09
2018-09-01T11:27:55.820Z,33.83
2018-09-01T11:30:23.052Z,34.27
2018-09-01T11:32:50.370Z,33.17
2018-09-01T11:35:17.671Z,34.60
2018-09-01T11:37:44.965Z,34.99
2018-09-01T11:40:12.206Z,36.29
2018-09-01T11:42:39.605Z,36.33
2018-09-01T11:45:06.838Z,37.74
2018-09-01T11:47:34.141Z,36.88
2018-09-01T11:50:01.553Z,37.38
2018-09-01T11:52:28.802Z,37.31
2018-09-01T11:54:57.024Z,35.98
2018-09-01T11:57:24.286Z,35.77
2018-09-01T11:59:51.592Z,35.91
2018-09-01T12:02:19.013Z,35.44
2018-09-01T12:04:46.301Z,34.51
2018-09-01T12:07:15.414Z,34.21
2018-09-01T12:09:42.759Z,33.88
2018-09-01T12:12:10.049Z,33.15
2018-09-01T12:14:37.318Z,33.39
2018-09-01T12:17:04.672Z,32.24
2018-09-01T12:19:32.425Z,33.00
2018-09-01T12:21:59.734Z,33.16
2018-09-01T12:24:26.995Z,34.77
2018-09-01T12:26:54.292Z,34.57
2018-09-01T12:29:21.535Z,34.13
2018-09-01T12:31:48.862Z,34.43
2018-09-01T12:34:16.134Z,35.24
2018-09-01T12:36:43.463Z,35.47
2018-09-01T12:39:10.710Z,36.48
2018-09-01T12:41:37.999Z,37.72
2018-09-01T12:44:05.316Z,37.00
2018-09-01T12:46:32.532Z,38.19
2018-09-01T12:48:59.837Z,36.48
2018-09-01T12:51:27.205Z,37.16
2018-09-01T12:53:54.522Z,37.60
2018-09-01T12:56:21.863Z,37.07
2018-09-01T12:58:49.195Z,37.24
2018-09-01T13:01:16.422Z,36.76
2018-09-01T13:03:43.726Z,35.56
2018-09-01T13:06:11.395Z,35.12
2018-09-01T13:08:38.666Z,34.62
2018-09-01T13:11:05.977Z,32.80
2018-09-01T13:13:33.232Z,32.48
2018-09-01T13:16:00.530Z,33.75
2018-09-01T13:18:27.872Z,33.25
2018-09-01T13:20:55.117Z,32.70
2018-09-01T13:23:22.426Z,33.02
2018-09-01T13:25:49.782Z,34.38
2018-09-01T13:28:17.154Z,33.46
2018-09-01T13:30:44.519Z,33.97
2018-09-01T13:33:11.837Z,33.61
2018-09-01T13:35:39.146Z,33.42
2018-09-01T13:38:06.516Z,33.54
2018-09-01T13:40:33.864Z,33.81
2018-09-01T13:43:01.189Z,32.89
2018-09-01T13:45:28.468Z,32.13
2018-09-01T13:47:55.773Z,33.49
2018-09-01T13:50:22.979Z,33.87
2018-09-01T13:52:50.337Z,34.39
2018-09-01T13:55:17.585Z,34.66
2018-09-01T13:57:44.884Z,33.46
2018-09-01T14:00:12.180Z,34.15
2018-09-01T14:02:39.445Z,33.02
2018-09-01T14:05:06.810Z,32.72
2018-09-01T14:07:34.075Z,33.05
2018-09-01T14:10:01.378Z,33.58
2018-09-01T14:12:28.671Z,33.30
2018-09-01T14:14:56.059Z,32.20
2018-09-01T14:17:23.264Z,31.92
2018-09-01T14:19:50.916Z,32.95
2018-09-01T14:22:18.171Z,33.54
2018-09-01T14:24:45.537Z,34.85
2018-09-01T14:27:13.218Z,34.71
2018-09-01T14:29:40.557Z,36.00
2018-09-01T14:32:07.873Z,35.66
2018-09-01T14:34:35.144Z,36.28
2018-09-01T14:37:02.429Z,35.39
2018-09-01T14:39:29.755Z,35.08
2018-09-01T14:41:57.140Z,35.10
2018-09-01T14:44:24.598Z,35.91
2018-09-01T14:46:52.021Z,34.61
2018-09-01T14:49:19.308Z,33.97
2018-09-01T14:51:46.856Z,33.90
2018-09-01T14:54:14.188Z,34.51
2018-09-01T14:56:41.518Z,35.10
2018-09-01T14:59:08.759Z,35.74
2018-09-01T15:01:36.016Z,36.57
2018-09-01T15:04:03.277Z,36.79
2018-09-01T15:06:30.567Z,37.96
2018-09-01T15:08:57.851Z,36.76
2018-09-01T15:11:25.178Z,36.77
2018-09-01T15:13:52.480Z,35.98
2018-09-01T15:16:19.833Z,37.17
2018-09-01T15:18:47.144Z,36.62
2018-09-01T15:21:14.414Z,36.94
2018-09-01T15:23:41.728Z,36.43
2018-09-01T15:26:08.986Z,35.31
2018-09-01T15:28:36.757Z,33.81
2018-09-01T15:31:03.996Z,32.79
2018-09-01T15:33:31.286Z,31.51
2018-09-01T15:35:58.542Z,31.83
2018-09-01T15:38:25.857Z,29.86
2018-09-01T15:40:53.254Z,30.10
2018-09-01T15:43:20.505Z,30.00
2018-09-01T15:45:47.766Z,29.74
2018-09-01T15:48:15.055Z,29.60
2018-09-01T15:50:42.457Z,30.08
2018-09-01T15:53:09.746Z,29.87
2018-09-01T15:55:37.090Z,31.08
2018-09-01T15:58:04.383Z,31.12
2018-09-01T16:00:31.709Z,31.49
2018-09-01T16:02:58.930Z,32.06
2018-09-01T16:05:26.196Z,32.61
2018-09-01T16:07:53.452Z,32.74
2018-09-01T16:10:20.810Z,32.57
2018-09-01T16:12:48.054Z,32.89
2018-09-01T16:15:15.311Z,33.57
2018-09-01T16:17:42.559Z,34.73
2018-09-01T16:20:09.802Z,34.39
2018-09-01T16:22:37.075Z,35.12
2018-09-01T16:25:04.418Z,35.76
2018-09-01T16:27:31.805Z,35.76
2018-09-01T16:29:59.058Z,36.37
2018-09-01T16:32:26.463Z,36.29
2018-09-01T16:34:53.750Z,36.60
2018-09-01T16:37:21.003Z,37.33
2018-09-01T16:39:48.281Z,37.93
2018-09-01T16:42:15.567Z,38.61
2018-09-01T16:44:42.954Z,38.48
2018-09-01T16:47:10.252Z,38.63
2018-09-01T16:49:37.612Z,38.73
2018-09-01T16:52:04.965Z,39.64
2018-09-01T16:54:32.145Z,39.21
2018-09-01T16:56:59.416Z,39.71
2018-09-01T16:59:26.702Z,40.67
2018-09-01T17:01:54.020Z,40.13
2018-09-01T17:04:21.313Z,40.39
2018-09-01T17:06:48.592Z,40.76
2018-09-01T17:09:15.989Z,40.39
2018-09-01T17:11:43.211Z,41.04
2018-09-01T17:14:10.464Z,41.53
2018-09-01T17:16:37.703Z,41.23
2018-09-01T17:19:05.289Z,42.41
2018-09-01T17:21:32.552Z,41.75
2018-09-01T17:23:59.920Z,41.91
2018-09-01T17:26:27.283Z,41.50
2018-09-01T17:28:54.640Z,42.29
2018-09-01T17:31:21.940Z,42.33
2018-09-01T17:33:49.393Z,42.30
2018-09-01T17:36:16.582Z,42.42
2018-09-01T17:38:43.847Z,42.90
2018-09-01T17:41:11.108Z,42.83
2018-09-01T17:43:38.451Z,42.72
2018-09-01T17:46:05.778Z,43.06
2018-09-01T17:48:33.021Z,42.78
2018-09-01T17:51:00.331Z,43.26
2018-09-01T17:53:27.702Z,43.89
2018-09-01T17:55:55.029Z,43.87
2018-09-01T17:58:22.334Z,43.53
2018-09-01T18:00:49.686Z,43.68
2018-09-01T18:03:16.909Z,43.66
2018-09-01T18:05:44.108Z,44.09
2018-09-01T18:08:11.342Z,43.46
2018-09-01T18:10:38.646Z,44.13
2018-09-01T18:13:06.068Z,44.91
2018-09-01T18:15:33.430Z,44.61
2018-09-01T18:18:00.757Z,44.54
2018-09-01T18:20:28.085Z,44.60
2018-09-01T18:22:55.365Z,44.88
2018-09-01T18:25:22.716Z,44.95
2018-09-01T18:27:49.991Z,45.23
2018-09-01T18:30:17.199Z,44.93
2018-09-01T18:32:44.496Z,45.52
2018-09-01T18:35:11.774Z,45.16
2018-09-01T18:37:39.104Z,45.31
2018-09-01T18:40:06.499Z,45.36
2018-09-01T18:42:33.849Z,45.40
2018-09-01T18:45:01.365Z,46.13
2018-09-01T18:47:28.772Z,46.30
2018-09-01T18:49:56.049Z,45.99
2018-09-01T18:52:23.473Z,46.22
2018-09-01T18:54:50.771Z,46.96
2018-09-01T18:57:18.054Z,46.51
2018-09-01T18:59:45.358Z,46.20
2018-09-01T19:02:12.607Z,46.42
2018-09-01T19:04:40.265Z,46.36
2018-09-01T19:07:07.503Z,46.37
2018-09-01T19:09:34.829Z,46.32
2018-09-01T19:12:02.075Z,46.35
2018-09-01T19:14:29.422Z,46.10
2018-09-01T19:16:56.731Z,45.97
2018-09-01T19:19:24.006Z,46.66
2018-09-01T19:21:51.293Z,46.82
2018-09-01T19:24:18.709Z,47.01
2018-09-01T19:26:46.450Z,47.78
2018-09-01T19:29:13.749Z,48.71
2018-09-01T19:31:41.056Z,49.50
2018-09-01T19:34:08.384Z,49.23
2018-09-01T19:36:35.693Z,48.04
2018-09-01T19:39:04.074Z,47.49
2018-09-01T19:41:31.289Z,48.10
2018-09-01T19:43:58.620Z,48.06
2018-09-01T19:46:25.875Z,48.76
2018-09-01T19:48:53.156Z,48.22
2018-09-01T19:51:20.547Z,49.58
2018-09-01T19:53:47.850Z,49.36
2018-09-01T19:56:15.154Z,49.79
2018-09-01T19:58:42.392Z,50.16
2018-09-01T20:01:09.687Z,51.19
2018-09-01T20:03:36.979Z,51.08
2018-09-01T20:06:04.932Z,50.56
2018-09-01T20:08:32.272Z,50.89
2018-09-01T20:10:59.572Z,50.67
2018-09-01T20:13:26.891Z,51.23
2018-09-01T20:15:54.200Z,51.13
2018-09-01T20:18:21.521Z,51.19
2018-09-01T20:20:48.874Z,51.84
2018-09-01T20:23:16.159Z,51.91
2018-09-01T20:25:43.410Z,51.23
2018-09-01T20:28:10.729Z,51.36
2018-09-01T20:30:38.012Z,51.91
2018-09-01T20:33:05.291Z,51.73
2018-09-01T20:35:38.216Z,52.01
2018-09-01T20:38:05.594Z,52.31
2018-09-01T20:40:32.868Z,52.17
2018-09-01T20:43:00.178Z,53.02
2018-09-01T20:45:27.397Z,52.82
2018-09-01T20:47:54.691Z,52.67
2018-09-01T20:50:21.979Z,53.12
2018-09-01T20:52:49.305Z,53.21
2018-09-01T20:55:16.653Z,53.88
2018-09-01T20:57:43.981Z,53.61
2018-09-01T21:00:11.281Z,53.86
2018-09-01T21:02:38.544Z,54.15
2018-09-01T21:05:05.891Z,53.19
2018-09-01T21:07:33.186Z,53.35
2018-09-01T21:10:00.543Z,54.30
2018-09-01T21:12:27.935Z,54.24
2018-09-01T21:14:55.269Z,54.47
2018-09-01T21:17:22.573Z,53.96
2018-09-01T21:19:49.814Z,54.38
2018-09-01T21:22:17.098Z,53.83
2018-09-01T21:24:44.399Z,52.35
2018-09-01T21:27:11.652Z,53.11
2018-09-01T21:29:39.034Z,52.89
2018-09-01T21:32:06.330Z,53.20
2018-09-01T21:34:33.619Z,53.59
2018-09-01T21:37:00.994Z,54.33
2018-09-01T21:39:28.248Z,53.35
2018-09-01T21:41:55.607Z,53.96
2018-09-01T21:44:22.812Z,54.68
2018-09-01T21:46:50.141Z,55.05
2018-09-01T21:49:17.433Z,55.52
2018-09-01T21:51:44.758Z,55.13
2018-09-01T21:54:12.088Z,55.19
2018-09-01T21:56:39.446Z,54.93
2018-09-01T21:59:06.794Z,55.02
2018-09-01T22:01:35.189Z,55.24
2018-09-01T22:04:02.470Z,54.98
2018-09-01T22:06:29.779Z,55.58
2018-09-01T22:08:57.049Z,55.42
2018-09-01T22:11:24.379Z,55.63
2018-09-01T22:13:51.805Z,56.24
2018-09-01T22:16:19.078Z,57.12
2018-09-01T22:18:46.460Z,57.31
2018-09-01T22:21:13.772Z,56.62
2018-09-01T22:23:41.062Z,57.60
2018-09-01T22:26:08.645Z,57.12
2018-09-01T22:28:36.278Z,57.43
2018-09-01T22:31:03.742Z,57.68
2018-09-01T22:33:30.931Z,56.63
2018-09-01T22:35:58.323Z,56.63
2018-09-01T22:38:25.652Z,56.14
2018-09-01T22:40:53.377Z,56.30
2018-09-01T22:43:20.671Z,56.97
2018-09-01T22:45:47.908Z,57.47
2018-09-01T22:48:15.207Z,57.69
2018-09-01T22:50:42.477Z,56.87
2018-09-01T22:53:09.756Z,56.43
2018-09-01T22:55:37.027Z,57.28
2018-09-01T22:58:04.368Z,57.51
2018-09-01T23:00:31.613Z,57.67
2018-09-01T23:02:58.873Z,57.85
2018-09-01T23:05:26.128Z,57.85
2018-09-01T23:07:53.390Z,57.87
2018-09-01T23:10:20.695Z,58.11
2018-09-01T23:12:48.074Z,57.50
2018-09-01T23:15:15.337Z,58.06
2018-09-01T23:17:42.610Z,57.88
2018-09-01T23:20:09.961Z,58.52
2018-09-01T23:22:37.243Z,58.49
2018-09-01T23:25:04.527Z,58.98
2018-09-01T23:27:31.904Z,58.51
2018-09-01T23:29:59.268Z,59.06
2018-09-01T23:32:26.630Z,58.45
2018-09-01T23:34:53.931Z,58.74
2018-09-01T23:37:21.212Z,58.50
2018-09-01T23:39:48.527Z,59.41
2018-09-01T23:42:15.895Z,59.80
2018-09-01T23:44:43.212Z,60.05
2018-09-01T23:47:10.560Z,59.80
2018-09-01T23:49:37.869Z,60.51
2018-09-01T23:52:05.117Z,60.06
2018-09-01T23:54:32.494Z,60.78
2018-09-01T23:56:59.802Z,60.21
2018-09-01T23:59:27.016Z,60.81
